createdAt,value
2019-05-12T00:02:15.284Z,101100.35
2019-05-12T00:04:48.831Z,101103.01
2019-05-12T00:07:20.843Z,101110.45
2019-05-12T00:09:52.011Z,101113.93
2019-05-12T00:12:23.771Z,101115.25
2019-05-12T00:14:54.948Z,101110.87
2019-05-12T00:17:28.328Z,101110.86
2019-05-12T00:19:59.536Z,101117.47
2019-05-12T00:22:38.166Z,101113.88
2019-05-12T00:25:10.115Z,101112.51
2019-05-12T00:27:48.883Z,101124.33
2019-05-12T00:30:40.033Z,101119.50
2019-05-12T00:33:11.307Z,101121.64
2019-05-12T00:35:43.131Z,101126.00
2019-05-12T00:38:14.967Z,101125.12
2019-05-12T00:40:47.949Z,101125.45
2019-05-12T00:43:19.873Z,101125.42
2019-05-12T00:45:51.736Z,101129.83
2019-05-12T00:48:23.632Z,101137.72
2019-05-12T00:50:55.744Z,101135.62
2019-05-12T00:53:37.251Z,101139.17
2019-05-12T00:56:00.495Z,101139.13
2019-05-12T00:58:31.636Z,101144.84
2019-05-12T01:01:04.371Z,101139.58
2019-05-12T01:03:38.207Z,101145.31
2019-05-12T01:06:09.787Z,101146.59
2019-05-12T01:08:41.668Z,101152.77
2019-05-12T01:11:13.573Z,101154.98
2019-05-12T01:13:45.499Z,101152.83
2019-05-12T01:16:18.413Z,101148.41
2019-05-12T01:18:50.401Z,101154.59
2019-05-12T01:21:22.284Z,101154.12
2019-05-12T01:24:00.511Z,101159.41
2019-05-12T01:26:28.471Z,101162.94
2019-05-12T01:28:59.705Z,101157.20
2019-05-12T01:31:33.867Z,101160.72
2019-05-12T01:34:05.030Z,101167.73
2019-05-12T01:36:38.101Z,101173.44
2019-05-12T01:39:09.486Z,101172.95
2019-05-12T01:41:41.307Z,101175.16
2019-05-12T01:44:12.487Z,101177.83
2019-05-12T01:46:44.399Z,101174.31
2019-05-12T01:49:15.737Z,101177.89
2019-05-12T01:51:47.721Z,101189.74
2019-05-12T01:54:19.652Z,101191.50
2019-05-12T01:56:51.452Z,101196.78
2019-05-12T01:59:23.325Z,101199.84
2019-05-12T02:01:55.175Z,101203.83
2019-05-12T02:04:28.797Z,101198.12
2019-05-12T02:07:02.688Z,101206.92
2019-05-12T02:09:35.539Z,101212.22
2019-05-12T02:12:08.252Z,101212.59
2019-05-12T02:14:40.286Z,101217.03
2019-05-12T02:17:12.163Z,101222.27
2019-05-12T02:19:43.468Z,101221.89
2019-05-12T02:22:15.333Z,101220.08
2019-05-12T02:24:47.899Z,101233.28
2019-05-12T02:27:19.726Z,101233.27
2019-05-12T02:29:50.945Z,101240.75
2019-05-12T02:32:25.288Z,101240.27
2019-05-12T02:34:56.349Z,101237.70
2019-05-12T02:37:28.263Z,101241.19
2019-05-12T02:40:00.173Z,101254.37
2019-05-12T02:42:34.878Z,101249.12
2019-05-12T02:45:06.647Z,101258.75
2019-05-12T02:47:38.799Z,101263.17
2019-05-12T02:50:14.370Z,101264.48
2019-05-12T02:52:45.121Z,101271.97
2019-05-12T02:55:17.092Z,101275.94
2019-05-12T02:57:50.668Z,101280.73
2019-05-12T03:00:24.234Z,101283.77
2019-05-12T03:02:58.372Z,101282.50
2019-05-12T03:05:31.173Z,101292.16
2019-05-12T03:08:05.398Z,101297.36
2019-05-12T03:10:37.722Z,101296.49
2019-05-12T03:13:09.554Z,101299.52
2019-05-12T03:15:44.387Z,101294.70
2019-05-12T03:18:15.064Z,101297.36
2019-05-12T03:20:46.250Z,101302.14
2019-05-12T03:23:19.195Z,101299.16
2019-05-12T03:25:54.433Z,101301.75
2019-05-12T03:28:25.724Z,101307.02
2019-05-12T03:30:58.235Z,101314.48
2019-05-12T03:33:40.600Z,101318.87
2019-05-12T03:36:08.454Z,101318.42
2019-05-12T03:38:36.855Z,101322.36
2019-05-12T03:41:08.878Z,101323.28
2019-05-12T03:43:40.821Z,101326.44
2019-05-12T03:46:15.230Z,101323.32
2019-05-12T03:48:45.752Z,101331.22
2019-05-12T03:51:16.905Z,101330.81
2019-05-12T03:53:48.854Z,101334.34
2019-05-12T03:56:20.834Z,101334.80
2019-05-12T03:58:54.078Z,101343.15
2019-05-12T04:01:26.083Z,101350.20
2019-05-12T04:03:58.085Z,101350.67
2019-05-12T04:06:30.092Z,101360.36
2019-05-12T04:09:04.760Z,101363.89
2019-05-12T04:11:35.841Z,101370.91
2019-05-12T04:14:08.435Z,101373.11
2019-05-12T04:16:40.288Z,101378.40
2019-05-12T04:19:14.698Z,101377.08
2019-05-12T04:21:45.917Z,101386.75
2019-05-12T04:24:17.862Z,101383.67
2019-05-12T04:26:49.756Z,101381.47
2019-05-12T04:29:24.854Z,101385.42
2019-05-12T04:31:55.217Z,101389.86
2019-05-12T04:34:27.106Z,101385.04
2019-05-12T04:36:59.033Z,101393.39
2019-05-12T04:39:30.877Z,101390.36
2019-05-12T04:42:05.255Z,101396.98
2019-05-12T04:44:35.865Z,101405.77
2019-05-12T04:47:07.765Z,101407.54
2019-05-12T04:49:41.504Z,101409.75
2019-05-12T04:52:15.549Z,101407.98
2019-05-12T04:54:47.032Z,101418.98
2019-05-12T04:57:21.079Z,101421.19
2019-05-12T04:59:54.326Z,101429.98
2019-05-12T05:02:26.335Z,101437.89
2019-05-12T05:05:00.645Z,101448.89
2019-05-12T05:07:35.628Z,101455.05
2019-05-12T05:10:07.127Z,101461.20
2019-05-12T05:12:39.050Z,101463.86
2019-05-12T05:15:14.338Z,101471.78
2019-05-12T05:17:44.954Z,101473.08
2019-05-12T05:20:16.853Z,101470.03
2019-05-12T05:22:48.741Z,101477.92
2019-05-12T05:25:20.617Z,101479.27
2019-05-12T05:27:53.338Z,101485.85
2019-05-12T05:30:24.634Z,101495.97
2019-05-12T05:32:55.765Z,101494.20
2019-05-12T05:35:28.975Z,101504.78
2019-05-12T05:38:01.282Z,101513.56
2019-05-12T05:40:35.286Z,101517.08
2019-05-12T05:43:18.689Z,101521.48
2019-05-12T05:45:40.299Z,101523.25
2019-05-12T05:48:13.651Z,101529.41
2019-05-12T05:50:48.432Z,101532.95
2019-05-12T05:53:20.394Z,101537.36
2019-05-12T05:55:56.261Z,101540.84
2019-05-12T05:58:28.674Z,101543.07
2019-05-12T06:01:03.728Z,101549.23
2019-05-12T06:03:35.195Z,101555.83
2019-05-12T06:06:12.216Z,101559.80
2019-05-12T06:08:39.519Z,101564.20
2019-05-12T06:11:14.820Z,101568.61
2019-05-12T06:13:44.992Z,101569.03
2019-05-12T06:16:20.726Z,101576.48
2019-05-12T06:18:50.601Z,101576.47
2019-05-12T06:21:24.187Z,101581.33
2019-05-12T06:23:55.471Z,101579.08
2019-05-12T06:26:32.620Z,101583.50
2019-05-12T06:29:00.888Z,101584.80
2019-05-12T06:31:33.526Z,101598.41
2019-05-12T06:34:18.615Z,101604.52
2019-05-12T06:36:41.326Z,101611.53
2019-05-12T06:39:18.985Z,101614.58
2019-05-12T06:41:46.353Z,101621.55
2019-05-12T06:44:19.521Z,101627.64
2019-05-12T06:47:10.684Z,101622.22
2019-05-12T06:49:37.863Z,101628.30
2019-05-12T06:52:14.337Z,101626.19
2019-05-12T06:54:51.254Z,101632.38
2019-05-12T06:57:27.863Z,101637.19
2019-05-12T06:59:55.153Z,101639.16
2019-05-12T07:03:28.420Z,101641.47
2019-05-12T07:05:55.246Z,101645.88
2019-05-12T07:08:44.954Z,101660.67
2019-05-12T07:11:18.255Z,101661.17
2019-05-12T07:14:02.188Z,101652.12
2019-05-12T07:19:40.706Z,101660.63
2019-05-12T07:22:44.292Z,101667.87
2019-05-12T07:25:13.533Z,101670.95
2019-05-12T07:27:53.654Z,101673.15
2019-05-12T07:30:31.864Z,101668.34
2019-05-12T07:33:04.609Z,101669.81
2019-05-12T07:35:40.758Z,101681.08
2019-05-12T07:38:21.042Z,101681.20
2019-05-12T07:40:53.571Z,101687.48
2019-05-12T07:43:29.177Z,101688.94
2019-05-12T07:46:06.814Z,101688.12
2019-05-12T07:48:35.020Z,101688.03
2019-05-12T07:51:07.032Z,101679.34
2019-05-12T07:53:38.870Z,101685.75
2019-05-12T07:56:19.507Z,101685.63
2019-05-12T07:58:54.220Z,101690.19
2019-05-12T08:01:24.014Z,101699.81
2019-05-12T08:03:59.983Z,101700.70
2019-05-12T08:06:34.735Z,101702.80
2019-05-12T08:09:05.830Z,101701.71
2019-05-12T08:11:39.025Z,101707.64
2019-05-12T08:14:13.783Z,101703.47
2019-05-12T08:16:45.020Z,101700.73
2019-05-12T08:19:23.906Z,101708.42
2019-05-12T08:21:51.100Z,101709.26
2019-05-12T08:24:23.856Z,101709.11
2019-05-12T08:26:59.543Z,101706.43
2019-05-12T08:29:30.279Z,101702.03
2019-05-12T08:32:03.802Z,101704.60
2019-05-12T08:34:35.895Z,101702.13
2019-05-12T08:37:18.535Z,101706.00
2019-05-12T08:39:53.404Z,101703.38
2019-05-12T08:42:24.659Z,101711.05
2019-05-12T08:44:56.017Z,101708.61
2019-05-12T08:47:35.489Z,101713.84
2019-05-12T08:50:06.547Z,101718.86
2019-05-12T08:52:41.992Z,101733.52
2019-05-12T08:55:16.852Z,101737.11
2019-05-12T08:57:49.713Z,101742.16
2019-05-12T09:00:39.409Z,101739.28
2019-05-12T09:03:10.744Z,101743.17
2019-05-12T09:05:57.378Z,101747.77
2019-05-12T09:08:29.901Z,101767.88
2019-05-12T09:11:03.821Z,101750.38
2019-05-12T09:13:35.508Z,101759.56
2019-05-12T09:16:09.778Z,101768.46
2019-05-12T09:18:47.674Z,101762.08
2019-05-12T09:21:31.920Z,101765.05
2019-05-12T09:24:04.335Z,101770.22
2019-05-12T09:26:38.294Z,101772.75
2019-05-12T09:29:14.143Z,101768.64
2019-05-12T09:31:50.602Z,101774.94
2019-05-12T09:34:27.023Z,101786.36
2019-05-12T09:37:03.843Z,101784.89
2019-05-12T09:39:42.802Z,101790.16
2019-05-12T09:42:14.102Z,101787.61
2019-05-12T09:44:48.667Z,101779.43
2019-05-12T09:47:27.542Z,101775.73
2019-05-12T09:50:09.593Z,101792.42
2019-05-12T09:52:54.983Z,101792.11
2019-05-12T09:55:26.135Z,101804.76
2019-05-12T09:57:58.171Z,101759.31
2019-05-12T10:00:35.908Z,101804.59
2019-05-12T10:03:08.343Z,101797.76
2019-05-12T10:05:41.189Z,101803.30
2019-05-12T10:08:13.830Z,101807.48
2019-05-12T10:10:47.168Z,101805.16
2019-05-12T10:13:20.264Z,101801.19
2019-05-12T10:15:53.580Z,101804.82
2019-05-12T10:18:25.840Z,101809.98
2019-05-12T10:20:58.265Z,101804.49
2019-05-12T10:23:29.863Z,101801.45
2019-05-12T10:26:09.481Z,101794.35
2019-05-12T10:28:36.060Z,101799.40
2019-05-12T10:31:10.760Z,101807.16
2019-05-12T10:33:43.368Z,101809.53
2019-05-12T10:36:15.726Z,101809.94
2019-05-12T10:38:47.003Z,101806.59
2019-05-12T10:41:19.905Z,101805.66
2019-05-12T10:43:56.017Z,101804.27
2019-05-12T10:46:28.600Z,101798.48
2019-05-12T10:48:59.206Z,101790.09
2019-05-12T10:51:31.183Z,101798.27
2019-05-12T10:54:12.093Z,101805.63
2019-05-12T10:56:36.699Z,101806.51
2019-05-12T10:59:07.903Z,101802.75
2019-05-12T11:01:47.250Z,101803.67
2019-05-12T11:04:14.280Z,101816.23
2019-05-12T11:06:48.499Z,101828.66
2019-05-12T11:09:21.234Z,101836.56
2019-05-12T11:11:54.015Z,101828.36
2019-05-12T11:14:30.274Z,101826.23
2019-05-12T11:17:02.143Z,101827.55
2019-05-12T11:19:34.818Z,101825.58
2019-05-12T11:22:06.693Z,101826.45
2019-05-12T11:24:38.512Z,101838.73
2019-05-12T11:27:13.314Z,101833.50
2019-05-12T11:29:49.096Z,101844.46
2019-05-12T11:32:17.961Z,101840.22
2019-05-12T11:34:50.734Z,101844.06
2019-05-12T11:37:23.506Z,101844.06
2019-05-12T11:39:55.358Z,101847.40
2019-05-12T11:42:27.442Z,101847.72
2019-05-12T11:45:08.155Z,101840.06
2019-05-12T11:47:41.702Z,101846.56
2019-05-12T11:50:14.071Z,101835.18
2019-05-12T11:52:50.567Z,101863.75
2019-05-12T11:55:29.843Z,101859.88
2019-05-12T11:58:00.475Z,101854.88
2019-05-12T12:00:39.154Z,101851.84
2019-05-12T12:03:13.001Z,101850.96
2019-05-12T12:05:44.689Z,101859.50
2019-05-12T12:08:19.706Z,101869.96
2019-05-12T12:10:59.735Z,101856.52
2019-05-12T12:13:33.561Z,101868.02
2019-05-12T12:16:06.942Z,101868.13
2019-05-12T12:18:46.680Z,101863.34
2019-05-12T12:21:19.524Z,101863.67
2019-05-12T12:23:53.713Z,101860.80
2019-05-12T12:26:30.168Z,101856.33
2019-05-12T12:28:59.779Z,101866.38
2019-05-12T12:31:48.691Z,101856.84
2019-05-12T12:34:25.493Z,101865.69
2019-05-12T12:36:58.098Z,101875.44
2019-05-12T12:39:29.967Z,101876.29
2019-05-12T12:42:06.997Z,101879.12
2019-05-12T12:44:38.472Z,101886.96
2019-05-12T12:47:17.162Z,101880.74
2019-05-12T12:49:49.491Z,101890.63
2019-05-12T12:52:24.389Z,101896.02
2019-05-12T12:55:05.315Z,101897.52
2019-05-12T12:57:33.649Z,101905.42
2019-05-12T13:00:31.840Z,101901.98
2019-05-12T13:02:55.758Z,101905.66
2019-05-12T13:05:29.519Z,101902.62
2019-05-12T13:08:04.254Z,101903.44
2019-05-12T13:10:40.510Z,101899.37
2019-05-12T13:13:10.505Z,101915.27
2019-05-12T13:15:44.420Z,101928.06
2019-05-12T13:18:24.051Z,101912.53
2019-05-12T13:20:54.094Z,101918.37
2019-05-12T13:23:40.510Z,101912.95
2019-05-12T13:26:08.128Z,101911.11
2019-05-12T13:28:39.349Z,101908.23
2019-05-12T13:51:55.213Z,101913.77
2019-05-12T13:54:29.963Z,101917.44
2019-05-12T13:57:03.872Z,101926.08
2019-05-12T13:59:35.421Z,101924.16
2019-05-12T14:02:07.505Z,101932.92
2019-05-12T14:04:39.990Z,101922.55
2019-05-12T14:07:17.704Z,101922.07
2019-05-12T14:09:45.617Z,101919.97
2019-05-12T14:12:17.970Z,101922.98
2019-05-12T14:14:49.933Z,101919.69
2019-05-12T14:17:23.525Z,101919.26
2019-05-12T14:19:55.585Z,101917.73
2019-05-12T14:22:27.766Z,101922.08
2019-05-12T14:25:02.195Z,101919.74
2019-05-12T14:27:33.534Z,101915.83
2019-05-12T14:30:10.380Z,101931.98
2019-05-12T14:32:40.974Z,101926.31
2019-05-12T14:35:13.067Z,101929.28
2019-05-12T14:37:45.795Z,101921.05
2019-05-12T14:40:21.362Z,101923.06
2019-05-12T14:42:54.323Z,101930.56
2019-05-12T14:45:29.912Z,101942.01
2019-05-12T14:47:59.989Z,101926.41
2019-05-12T14:50:33.674Z,101939.28
2019-05-12T14:53:05.607Z,101937.33
2019-05-12T14:55:38.504Z,101938.48
2019-05-12T14:58:17.669Z,101933.99
2019-05-12T15:00:44.705Z,101941.77
2019-05-12T15:03:16.694Z,101942.65
2019-05-12T15:05:48.973Z,101939.09
2019-05-12T15:08:21.494Z,101958.02
2019-05-12T15:10:54.512Z,101947.25
2019-05-12T15:13:26.820Z,101944.59
2019-05-12T15:16:00.160Z,101951.05
2019-05-12T15:18:32.277Z,101948.64
2019-05-12T15:21:04.218Z,101944.03
2019-05-12T15:23:37.613Z,101946.82
2019-05-12T15:26:14.934Z,101947.13
2019-05-12T15:28:43.594Z,101957.98
2019-05-12T15:31:15.548Z,101947.39
2019-05-12T15:33:47.473Z,101947.48
2019-05-12T15:36:19.794Z,101958.23
2019-05-12T15:38:55.746Z,101955.85
2019-05-12T15:41:25.703Z,101952.64
2019-05-12T15:43:58.264Z,101955.95
2019-05-12T15:46:33.027Z,101958.16
2019-05-12T15:49:04.322Z,101953.45
2019-05-12T15:51:39.020Z,101973.49
2019-05-12T15:54:11.622Z,101970.28
2019-05-12T15:56:43.096Z,101966.56
2019-05-12T15:59:17.415Z,101969.34
2019-05-12T16:01:48.198Z,101968.70
2019-05-12T16:04:20.162Z,101970.62
2019-05-12T16:06:57.148Z,101975.17
2019-05-12T16:09:26.201Z,101977.94
2019-05-12T16:11:58.408Z,101981.50
2019-05-12T16:14:30.542Z,101982.73
2019-05-12T16:17:06.568Z,101989.12
2019-05-12T16:19:39.232Z,101982.67
2019-05-12T16:22:10.576Z,101991.19
2019-05-12T16:24:43.522Z,101998.85
2019-05-12T16:27:15.813Z,102007.34
2019-05-12T16:29:50.031Z,101999.59
2019-05-12T16:32:26.798Z,102002.91
2019-05-12T16:34:55.165Z,102008.31
2019-05-12T16:37:31.306Z,102009.69
2019-05-12T16:40:00.857Z,102011.48
2019-05-12T16:42:33.714Z,102011.09
2019-05-12T16:45:09.797Z,101983.43
2019-05-12T16:47:38.990Z,102022.95
2019-05-12T16:50:15.162Z,102017.10
2019-05-12T16:52:45.504Z,102011.53
2019-05-12T16:55:16.670Z,102016.16
2019-05-12T16:57:52.771Z,102018.84
2019-05-12T17:00:24.253Z,102020.03
2019-05-12T17:02:58.055Z,102025.43
2019-05-12T17:05:30.082Z,102022.36
2019-05-12T17:08:04.180Z,102022.11
2019-05-12T17:10:38.512Z,102020.97
2019-05-12T17:13:13.332Z,102019.64
2019-05-12T17:15:43.404Z,102031.47
2019-05-12T17:18:17.504Z,102038.34
2019-05-12T17:20:51.101Z,102042.05
2019-05-12T17:23:24.670Z,102040.80
2019-05-12T17:25:57.064Z,102050.69
2019-05-12T17:28:29.081Z,102047.00
2019-05-12T17:31:03.675Z,102050.11
2019-05-12T17:33:35.444Z,102053.64
2019-05-12T17:36:12.033Z,102051.90
2019-05-12T17:38:40.414Z,102059.11
2019-05-12T17:41:15.422Z,102056.50
2019-05-12T17:43:52.032Z,102072.30
2019-05-12T17:46:18.440Z,102073.66
2019-05-12T17:48:50.028Z,102078.41
2019-05-12T17:51:26.727Z,102074.41
2019-05-12T17:53:56.001Z,102082.92
2019-05-12T17:56:34.218Z,102091.88
2019-05-12T17:59:04.331Z,102088.07
2019-05-12T18:01:36.686Z,102096.17
2019-05-12T18:04:09.011Z,102100.91
2019-05-12T18:06:41.220Z,102096.36
2019-05-12T18:09:15.790Z,102108.81
2019-05-12T18:11:46.087Z,102107.09
2019-05-12T18:14:19.121Z,102110.75
2019-05-12T18:16:53.685Z,102112.70
2019-05-12T18:19:24.613Z,102127.00
2019-05-12T18:22:03.257Z,102123.50
2019-05-12T18:24:29.830Z,102132.08
2019-05-12T18:27:05.032Z,102133.42
2019-05-12T18:29:34.040Z,102138.41
2019-05-12T18:32:08.300Z,102144.68
2019-05-12T18:34:39.130Z,102152.59
2019-05-12T18:37:13.435Z,102160.69
2019-05-12T18:39:44.457Z,102160.30
2019-05-12T18:42:15.743Z,102170.95
2019-05-12T18:44:46.920Z,102172.36
2019-05-12T18:47:23.436Z,102183.91
2019-05-12T18:49:53.819Z,102189.66
2019-05-12T18:52:29.359Z,102189.28
2019-05-12T18:54:58.066Z,102195.95
2019-05-12T18:57:30.031Z,102195.06
2019-05-12T19:00:04.907Z,102199.93
2019-05-12T19:02:36.063Z,102209.22
2019-05-12T19:05:12.858Z,102208.79
2019-05-12T19:07:43.884Z,102209.25
2019-05-12T19:10:16.439Z,102218.97
2019-05-12T19:12:51.694Z,102223.88
2019-05-12T19:15:22.102Z,102236.69
2019-05-12T19:17:54.372Z,102242.45
2019-05-12T19:20:26.347Z,102246.42
2019-05-12T19:23:00.207Z,102249.97
2019-05-12T19:25:35.788Z,102256.16
2019-05-12T19:28:10.380Z,102256.61
2019-05-12T19:30:40.527Z,102267.20
2019-05-12T19:33:13.632Z,102272.53
2019-05-12T19:35:50.362Z,102276.93
2019-05-12T19:38:19.556Z,102280.02
2019-05-12T19:40:56.323Z,102282.67
2019-05-12T19:43:25.282Z,102286.22
2019-05-12T19:46:03.210Z,102296.38
2019-05-12T19:48:35.170Z,102296.39
2019-05-12T19:51:20.334Z,102300.39
2019-05-12T19:53:38.564Z,102303.04
2019-05-12T19:56:09.925Z,102305.66
2019-05-12T19:58:43.822Z,102314.06
2019-05-12T20:01:15.711Z,102324.22
2019-05-12T20:03:50.109Z,102330.83
2019-05-12T20:06:20.534Z,102333.03
2019-05-12T20:08:55.797Z,102335.17
2019-05-12T20:11:29.380Z,102340.91
2019-05-12T20:13:58.250Z,102348.39
2019-05-12T20:16:30.686Z,102347.07
2019-05-12T20:19:04.287Z,102353.62
2019-05-12T20:21:35.786Z,102348.35
2019-05-12T20:24:07.020Z,102349.71
2019-05-12T20:26:40.163Z,102354.95
2019-05-12T20:29:13.682Z,102354.94
2019-05-12T20:31:50.931Z,102354.52
2019-05-12T20:34:24.471Z,102359.37
2019-05-12T20:36:59.079Z,102359.77
2019-05-12T20:39:28.186Z,102364.19
2019-05-12T20:42:01.240Z,102361.48
2019-05-12T20:44:34.456Z,102364.56
2019-05-12T20:47:06.848Z,102373.79
2019-05-12T20:49:42.909Z,102372.05
2019-05-12T20:52:14.454Z,102368.06
2019-05-12T20:54:49.238Z,102369.81
2019-05-12T20:57:23.615Z,102368.58
2019-05-12T20:59:58.234Z,102375.94
2019-05-12T21:02:27.964Z,102379.99
2019-05-12T21:05:01.316Z,102379.91
2019-05-12T21:07:33.852Z,102379.88
2019-05-12T21:10:06.269Z,102386.92
2019-05-12T21:12:40.173Z,102386.47
2019-05-12T21:15:17.392Z,102392.61
2019-05-12T21:17:52.146Z,102390.41
2019-05-12T21:20:19.131Z,102397.52
2019-05-12T21:22:51.067Z,102389.52
2019-05-12T21:25:23.383Z,102401.37
2019-05-12T21:28:02.539Z,102399.52
2019-05-12T21:30:29.046Z,102408.41
2019-05-12T21:33:01.578Z,102410.16
2019-05-12T21:35:40.871Z,102403.22
2019-05-12T21:38:07.153Z,102413.36
2019-05-12T21:40:40.017Z,102410.78
2019-05-12T21:43:13.571Z,102408.53
2019-05-12T21:45:45.601Z,102415.45
2019-05-12T21:48:23.621Z,102413.32
2019-05-12T21:50:49.842Z,102416.30
2019-05-12T21:53:23.671Z,102418.42
2019-05-12T21:56:03.828Z,102418.89
2019-05-12T21:58:28.057Z,102416.73
2019-05-12T22:01:07.410Z,102421.16
2019-05-12T22:03:37.846Z,102418.33
2019-05-12T22:06:19.110Z,102419.67
2019-05-12T22:08:44.240Z,102422.67
2019-05-12T22:11:16.273Z,102426.58
2019-05-12T22:13:58.175Z,102425.59
2019-05-12T22:16:23.590Z,102432.23
2019-05-12T22:18:59.297Z,102428.32
2019-05-12T22:21:29.104Z,102431.87
2019-05-12T22:24:01.002Z,102432.72
2019-05-12T22:26:39.691Z,102430.19
2019-05-12T22:29:05.887Z,102431.03
2019-05-12T22:31:38.776Z,102425.22
2019-05-12T22:34:11.237Z,102430.02
2019-05-12T22:36:45.519Z,102432.29
2019-05-12T22:39:17.042Z,102431.20
2019-05-12T22:41:48.858Z,102432.42
2019-05-12T22:44:22.268Z,102430.31
2019-05-12T22:46:54.353Z,102430.51
2019-05-12T22:49:26.299Z,102428.98
2019-05-12T22:52:02.706Z,102430.69
2019-05-12T22:54:33.566Z,102433.70
2019-05-12T22:57:04.578Z,102433.09
2019-05-12T22:59:40.475Z,102438.45
2019-05-12T23:02:09.949Z,102443.23
2019-05-12T23:04:43.883Z,102439.56
2019-05-12T23:07:19.047Z,102445.70
2019-05-12T23:09:49.020Z,102443.53
2019-05-12T23:12:20.921Z,102444.41
2019-05-12T23:14:55.371Z,102447.06
2019-05-12T23:17:25.626Z,102451.36
2019-05-12T23:19:57.427Z,102457.55
2019-05-12T23:22:34.916Z,102457.48
2019-05-12T23:25:03.933Z,102452.41
2019-05-12T23:27:35.262Z,102452.00
2019-05-12T23:30:11.191Z,102458.73
2019-05-12T23:32:42.956Z,102459.23
2019-05-12T23:35:15.124Z,102455.70
2019-05-12T23:37:47.037Z,102462.70
2019-05-12T23:40:18.186Z,102458.15
2019-05-12T23:42:50.000Z,102462.94
2019-05-12T23:45:24.217Z,102464.17
2019-05-12T23:47:55.348Z,102458.06
2019-05-12T23:50:27.130Z,102463.25
2019-05-12T23:52:59.044Z,102467.06
2019-05-12T23:55:30.921Z,102460.80
2019-05-12T23:58:04.206Z,102465.28
